Time;durP1;ratioP1;P1;durP2;ratioP2;P2;SDS_P1;SDS_P2;PMS_P1;PMS_P2;Temp;Humidity;BMP_temperature;BMP_pressure;BME280_temperature;BME280_humidity;BME280_pressure;Samples;Min_cycle;Max_cycle;Signal;HPM_P1;HPM_P2
2023/01/29 00:01:55;;;;;;;7.53;6.28;;;;;;;5.26;64.94;99645.13;5071368;28;20073;-79
2023/01/29 00:04:21;;;;;;;9.93;6.33;;;;;;;5.68;64.92;99711.03;5071362;28;20029;-79
2023/01/29 00:06:46;;;;;;;6.65;5.68;;;;;;;5.58;65.33;99694.50;5072797;28;20028;-79
2023/01/29 00:09:12;;;;;;;7.47;5.90;;;;;;;5.06;65.60;99619.94;5072702;28;20107;-80
2023/01/29 00:11:38;;;;;;;5.97;5.38;;;;;;;5.65;65.26;99721.78;5072510;28;20024;-79
2023/01/29 00:14:05;;;;;;;7.23;6.30;;;;;;;5.46;65.20;99682.56;5072456;28;20135;-79
2023/01/29 00:16:30;;;;;;;8.43;6.72;;;;;;;5.46;65.00;99707.91;5072919;28;20035;-79
2023/01/29 00:18:55;;;;;;;8.68;7.38;;;;;;;4.91;64.95;99614.31;5071120;28;20115;-79
2023/01/29 00:21:21;;;;;;;12.17;8.43;;;;;;;5.37;65.15;99692.09;5072189;28;20080;-79
2023/01/29 00:23:48;;;;;;;13.10;9.77;;;;;;;5.58;65.26;99733.78;5072261;28;20025;-79
2023/01/29 00:26:14;;;;;;;11.07;9.07;;;;;;;5.57;65.51;99734.75;5070940;28;20028;-79
2023/01/29 00:28:39;;;;;;;11.55;8.63;;;;;;;5.31;65.39;99691.81;5070736;28;20028;-79
2023/01/29 00:31:12;;;;;;;11.98;9.20;;;;;;;5.32;65.10;99689.06;5070862;28;20055;-79
2023/01/29 00:33:38;;;;;;;9.90;7.63;;;;;;;5.50;65.09;99728.44;5071914;28;20532;-79
2023/01/29 00:36:05;;;;;;;9.27;7.88;;;;;;;5.60;65.14;99738.88;5070495;28;20021;-79
2023/01/29 00:38:32;;;;;;;10.07;8.00;;;;;;;4.72;65.29;99596.03;5071841;28;20040;-79
2023/01/29 00:46:43;;;;;;;9.00;7.97;;;;;;;5.50;65.25;99733.69;5072063;28;20477;-79
2023/01/29 00:49:09;;;;;;;9.70;7.70;;;;;;;5.22;65.21;99716.22;5072441;28;20021;-80
2023/01/29 00:51:36;;;;;;;9.57;7.63;;;;;;;5.48;65.16;99732.16;5072507;28;20016;-80
2023/01/29 00:54:05;;;;;;;9.90;7.60;;;;;;;5.25;65.07;99697.63;5070765;28;20017;-80
2023/01/29 00:56:32;;;;;;;8.83;7.70;;;;;;;5.50;65.58;99733.69;5071769;28;20017;-80
2023/01/29 00:58:58;;;;;;;8.27;7.00;;;;;;;5.27;65.09;99709.59;5071133;28;20089;-80
2023/01/29 01:04:10;;;;;;;8.70;7.67;;;;;;;5.48;64.85;99738.22;5073019;28;20032;-80
2023/01/29 01:06:37;;;;;;;9.20;7.57;;;;;;;4.81;64.61;99636.22;5071806;28;20021;-80
2023/01/29 01:11:47;;;;;;;8.33;7.07;;;;;;;4.95;64.49;99675.03;5073315;28;20101;-80
2023/01/29 01:14:12;;;;;;;8.77;7.22;;;;;;;4.98;64.63;99678.19;5073690;28;20111;-79
2023/01/29 01:16:38;;;;;;;8.70;7.57;;;;;;;4.97;64.97;99688.81;5074138;28;20078;-79
2023/01/29 01:19:03;;;;;;;9.30;7.70;;;;;;;5.50;65.06;99745.94;5073263;28;20025;-79
2023/01/29 01:21:29;;;;;;;7.73;6.83;;;;;;;5.30;64.67;99725.03;5073094;28;20084;-80
2023/01/29 01:23:54;;;;;;;8.55;7.28;;;;;;;5.25;64.21;99724.63;5071408;28;20410;-80
2023/01/29 01:26:20;;;;;;;8.05;7.10;;;;;;;5.43;64.61;99749.13;5077220;28;20025;-80
2023/01/29 01:28:45;;;;;;;8.60;7.60;;;;;;;5.18;64.99;99718.25;5084126;28;20038;-82
2023/01/29 01:31:12;;;;;;;9.05;8.13;;;;;;;5.46;64.87;99749.81;5072654;28;20539;-80
2023/01/29 01:33:38;;;;;;;13.83;9.70;;;;;;;5.07;64.41;99708.75;5071420;28;20107;-79
2023/01/29 01:36:08;;;;;;;13.27;9.13;;;;;;;5.22;64.52;99721.47;5069960;28;20413;-80
2023/01/29 01:38:33;;;;;;;14.47;11.20;;;;;;;4.87;64.32;99687.97;5070025;28;20024;-80
2023/01/29 01:40:59;;;;;;;13.47;10.30;;;;;;;5.38;64.61;99761.81;5071524;28;20028;-80
2023/01/29 01:43:24;;;;;;;12.13;9.52;;;;;;;5.20;64.72;99736.44;5071207;28;20027;-80
2023/01/29 01:45:50;;;;;;;10.20;8.18;;;;;;;4.53;64.59;99611.72;5069997;28;20024;-80
2023/01/29 01:48:22;;;;;;;8.38;6.90;;;;;;;5.11;64.45;99707.53;5069932;28;20055;-80
2023/01/29 01:50:59;;;;;;;;;;;;;;;5.26;64.92;99760.31;5070614;28;20082;-80
2023/01/29 01:53:33;;;;;;;10.80;8.23;;;;;;;5.16;64.88;99740.31;5071149;28;19995;-80
2023/01/29 01:56:03;;;;;;;10.00;7.70;;;;;;;4.87;64.93;99691.44;5071074;28;20059;-80
2023/01/29 01:58:36;;;;;;;10.63;7.03;;;;;;;5.33;64.83;99758.78;5070872;28;20024;-80
2023/01/29 02:01:07;;;;;;;10.73;7.30;;;;;;;4.27;64.75;99593.13;5070938;28;20534;-80
2023/01/29 02:09:37;;;;;;;12.67;9.10;;;;;;;5.22;64.59;99756.31;5073228;28;20059;-80
2023/01/29 02:12:09;;;;;;;11.80;8.90;;;;;;;5.27;64.84;99766.38;5073218;28;20024;-79
2023/01/29 02:14:38;;;;;;;13.00;8.87;;;;;;;5.29;65.16;99769.66;5073565;28;20545;-80
2023/01/29 02:17:08;;;;;;;12.23;9.70;;;;;;;4.64;64.86;99658.66;5074149;28;20017;-80
2023/01/29 02:19:52;;;;;;;11.27;7.87;;;;;;;5.30;64.50;99771.31;5076468;28;20082;-80
2023/01/29 02:22:40;;;;;;;10.37;8.47;;;;;;;5.33;64.63;99771.88;5076560;28;20135;-80
2023/01/29 02:25:33;;;;;;;8.90;7.40;;;;;;;4.91;64.85;99703.25;5075551;28;20025;-79
2023/01/29 02:28:20;;;;;;;;;;;;;;;5.19;64.84;99767.03;5076761;28;20081;-80
2023/01/29 02:31:27;;;;;;;10.40;7.70;;;;;;;5.31;64.79;99783.44;5075967;28;20381;-80
2023/01/29 02:34:21;;;;;;;9.57;8.30;;;;;;;5.07;64.70;99737.56;5073163;28;20451;-80
2023/01/29 02:37:10;;;;;;;8.07;7.20;;;;;;;4.83;64.42;99704.91;5074227;28;20063;-80
2023/01/29 02:39:53;;;;;;;9.50;8.13;;;;;;;5.34;64.55;99778.75;5074432;28;20094;-80
2023/01/29 02:42:35;;;;;;;8.90;7.97;;;;;;;4.93;64.34;99717.03;5074202;28;20020;-80
2023/01/29 02:45:21;;;;;;;8.90;7.97;;;;;;;4.74;64.39;99678.63;5074244;28;20017;-80
2023/01/29 02:47:59;;;;;;;9.82;8.13;;;;;;;5.32;64.58;99779.88;5074930;28;20032;-80
2023/01/29 02:50:50;;;;;;;9.90;8.50;;;;;;;5.32;64.48;99779.88;5076069;28;20029;-80
2023/01/29 02:53:32;;;;;;;9.43;8.38;;;;;;;5.00;64.68;99739.06;5076423;28;20032;-80
2023/01/29 02:56:09;;;;;;;10.57;8.20;;;;;;;5.02;64.59;99733.69;5076784;28;20058;-80
2023/01/29 02:58:44;;;;;;;10.77;9.27;;;;;;;5.30;64.70;99789.66;5076601;28;20497;-80
2023/01/29 03:01:29;;;;;;;9.57;8.30;;;;;;;5.33;64.52;99790.19;5075188;28;20040;-80
2023/01/29 03:04:00;;;;;;;11.82;9.15;;;;;;;5.29;64.48;99788.00;5076338;28;20032;-80
2023/01/29 03:06:34;;;;;;;11.53;10.07;;;;;;;5.33;64.81;99792.00;5076262;28;20066;-80
2023/01/29 03:09:03;;;;;;;12.40;10.10;;;;;;;5.21;64.76;99770.38;5075834;28;20267;-80
2023/01/29 03:11:35;;;;;;;12.77;10.43;;;;;;;4.62;64.21;99676.28;5075967;28;20024;-80
2023/01/29 03:14:12;;;;;;;17.95;13.02;;;;;;;5.37;64.60;99796.81;5075697;28;20029;-80
2023/01/29 03:16:48;;;;;;;14.23;11.53;;;;;;;5.35;64.23;99800.53;5075571;28;20413;-80
2023/01/29 03:19:28;;;;;;;13.13;11.27;;;;;;;4.94;64.62;99744.03;5076276;28;20024;-80
2023/01/29 03:22:00;;;;;;;14.80;10.47;;;;;;;5.26;64.43;99801.34;5075501;28;20051;-80
2023/01/29 03:33:07;;;;;;;16.57;11.97;;;;;;;4.75;64.64;99721.28;5075654;28;20097;-80
2023/01/29 03:35:47;;;;;;;13.30;11.33;;;;;;;4.66;64.80;99711.66;5075248;28;20024;-80
2023/01/29 03:38:13;;;;;;;14.17;11.60;;;;;;;4.92;65.07;99753.81;5074207;28;20048;-79
2023/01/29 03:40:48;;;;;;;20.87;16.23;;;;;;;5.27;64.99;99821.34;5075337;28;20404;-79
2023/01/29 03:43:38;;;;;;;18.40;15.13;;;;;;;5.11;64.94;99821.84;5075259;28;20031;-80
2023/01/29 03:46:17;;;;;;;17.70;14.80;;;;;;;5.03;65.41;99825.16;5074104;28;20075;-80
2023/01/29 03:48:46;;;;;;;19.70;16.63;;;;;;;5.02;65.40;99827.91;5072543;28;20594;-80
2023/01/29 03:51:50;;;;;;;17.17;14.43;;;;;;;4.94;65.71;99825.97;5072317;28;20481;-80
2023/01/29 03:54:26;;;;;;;19.80;15.63;;;;;;;4.90;66.01;99831.59;5051474;28;20032;-80
2023/01/29 03:56:57;;;;;;;18.73;15.40;;;;;;;4.85;66.20;99829.38;5051885;28;20025;-80
2023/01/29 03:59:44;;;;;;;19.13;15.27;;;;;;;4.49;66.68;99782.91;5063883;28;20421;-80
2023/01/29 04:02:26;;;;;;;16.80;14.60;;;;;;;4.77;66.64;99834.47;5073493;28;20024;-80
2023/01/29 04:04:53;;;;;;;;;;;;;;;4.61;67.27;99831.53;5080208;28;20099;-81
2023/01/29 04:07:23;;;;;;;18.73;15.50;;;;;;;3.71;66.90;99691.13;5078107;28;19909;-81
2023/01/29 04:10:04;;;;;;;19.13;15.33;;;;;;;4.65;67.54;99832.91;5080892;28;20048;-81
2023/01/29 04:12:35;;;;;;;20.87;17.33;;;;;;;3.70;67.48;99697.31;5081757;28;20029;-80
2023/01/29 04:15:03;;;;;;;29.85;22.25;;;;;;;4.64;67.57;99841.72;5087278;28;20024;-80
2023/01/29 04:17:36;;;;;;;38.40;25.70;;;;;;;4.66;67.48;99843.25;5087702;28;20409;-80
2023/01/29 04:20:02;;;;;;;25.40;20.13;;;;;;;4.66;67.66;99850.25;5075353;28;20076;-80
2023/01/29 04:22:36;;;;;;;22.80;18.37;;;;;;;4.64;67.99;99854.78;5075251;28;20047;-80
2023/01/29 04:25:07;;;;;;;19.27;15.83;;;;;;;4.32;68.04;99810.47;5075682;28;20024;-80
2023/01/29 04:27:35;;;;;;;18.90;15.33;;;;;;;4.60;67.92;99853.41;5078178;28;20021;-81
2023/01/29 04:30:25;;;;;;;18.83;16.27;;;;;;;4.15;68.35;99794.44;5076623;28;20409;-80
2023/01/29 04:33:05;;;;;;;21.63;16.73;;;;;;;4.29;68.36;99818.56;5077148;28;20031;-80
2023/01/29 04:35:39;;;;;;;17.83;14.40;;;;;;;4.23;68.35;99808.66;5083204;28;20080;-79
2023/01/29 04:38:40;;;;;;;17.77;14.83;;;;;;;4.01;68.53;99786.97;5082056;28;20586;-80
2023/01/29 04:41:19;;;;;;;17.93;15.00;;;;;;;4.68;68.28;99871.88;5076677;28;20021;-80
2023/01/29 04:43:54;;;;;;;16.60;13.80;;;;;;;4.70;68.23;99875.19;5075528;28;20513;-80
2023/01/29 04:46:45;;;;;;;19.23;16.60;;;;;;;4.39;68.63;99841.19;5075164;28;20052;-81
2023/01/29 04:49:17;;;;;;;20.70;16.33;;;;;;;4.19;68.71;99813.31;5069837;28;20032;-80
2023/01/29 04:51:50;;;;;;;19.70;15.82;;;;;;;3.96;68.72;99770.03;5075580;28;20034;-80
2023/01/29 04:54:32;;;;;;;17.63;13.77;;;;;;;4.10;68.67;99804.47;5075335;28;20035;-80
2023/01/29 04:57:04;;;;;;;;;;;;;;;4.49;69.62;99885.69;5075439;28;20030;-80
2023/01/29 04:59:35;;;;;;;19.05;14.55;;;;;;;4.25;68.65;99846.75;5075627;28;19962;-80
2023/01/29 05:02:01;;;;;;;16.93;13.80;;;;;;;4.27;68.66;99838.78;5075405;28;20036;-80
2023/01/29 05:04:31;;;;;;;19.37;15.03;;;;;;;4.29;68.81;99834.25;5075779;28;20032;-80
2023/01/29 05:07:00;;;;;;;19.67;15.93;;;;;;;4.13;68.86;99821.69;5074338;28;20020;-81
2023/01/29 05:09:25;;;;;;;19.87;16.13;;;;;;;4.45;68.93;99913.03;5075605;28;20031;-81
2023/01/29 05:11:51;;;;;;;20.93;16.17;;;;;;;4.03;68.79;99813.78;5074927;28;20025;-81
2023/01/29 05:14:18;;;;;;;17.67;14.83;;;;;;;3.75;69.08;99767.44;5073809;28;20035;-80
2023/01/29 05:16:52;;;;;;;20.10;14.93;;;;;;;4.57;69.18;99898.13;5072917;28;20025;-80
2023/01/29 05:19:17;;;;;;;20.93;16.53;;;;;;;4.27;69.28;99854.47;5073267;28;20024;-81
2023/01/29 05:21:46;;;;;;;17.37;14.83;;;;;;;3.84;69.22;99798.00;5073637;28;20038;-81
2023/01/29 05:24:23;;;;;;;18.27;14.60;;;;;;;4.25;69.24;99867.66;5073420;28;20021;-81
2023/01/29 05:29:35;;;;;;;19.70;16.63;;;;;;;3.91;69.10;99816.59;5074400;28;20035;-81
2023/01/29 05:32:01;;;;;;;19.03;15.80;;;;;;;4.06;69.35;99839.66;5073720;28;20024;-80
2023/01/29 05:34:26;;;;;;;20.63;15.80;;;;;;;3.73;69.10;99780.63;5075919;28;20039;-81
2023/01/29 05:36:52;;;;;;;16.43;14.33;;;;;;;3.76;69.37;99790.81;5074992;28;20046;-81
2023/01/29 05:39:18;;;;;;;15.57;12.83;;;;;;;3.78;69.32;99799.34;5075000;28;20028;-80
2023/01/29 05:41:43;;;;;;;16.57;14.07;;;;;;;4.53;69.54;99918.47;5074497;28;20032;-80
2023/01/29 05:44:10;;;;;;;17.13;14.10;;;;;;;4.22;69.66;99874.94;5074232;28;20484;-81
2023/01/29 05:46:36;;;;;;;20.77;15.40;;;;;;;4.43;69.50;99912.34;5075829;28;20500;-80
2023/01/29 05:49:02;;;;;;;21.47;15.87;;;;;;;4.08;69.58;99855.19;5075064;28;20028;-81
2023/01/29 05:51:27;;;;;;;21.23;16.23;;;;;;;4.42;69.82;99900.22;5077047;28;20016;-80
2023/01/29 05:53:53;;;;;;;21.60;17.17;;;;;;;4.42;69.74;99910.69;5079048;28;20099;-81
2023/01/29 05:56:18;;;;;;;20.77;17.70;;;;;;;4.36;69.75;99891.13;5079729;28;20530;-80
2023/01/29 05:58:44;;;;;;;20.63;15.80;;;;;;;4.31;69.43;99898.53;5079475;28;20047;-80
2023/01/29 06:01:16;;;;;;;18.90;15.87;;;;;;;4.68;69.17;99943.31;5079315;28;20077;-80
2023/01/29 06:03:42;;;;;;;22.70;17.60;;;;;;;3.24;69.51;99712.56;5078154;28;20067;-81
2023/01/29 06:06:08;;;;;;;19.10;16.07;;;;;;;4.61;69.42;99923.88;5079186;28;20409;-81
2023/01/29 06:08:33;;;;;;;18.67;15.47;;;;;;;4.58;69.34;99945.06;5079364;28;20031;-80
2023/01/29 06:10:59;;;;;;;18.90;15.70;;;;;;;3.79;69.43;99801.00;5078500;28;20037;-80
2023/01/29 06:13:24;;;;;;;19.50;16.23;;;;;;;4.36;69.55;99904.19;5077256;28;20028;-80
2023/01/29 06:15:50;;;;;;;19.37;15.10;;;;;;;4.15;69.65;99872.84;5078706;28;20033;-80
2023/01/29 06:18:15;;;;;;;20.83;16.60;;;;;;;4.25;69.57;99901.66;5077021;28;20024;-80
2023/01/29 06:20:41;;;;;;;19.43;16.77;;;;;;;4.55;69.48;99926.19;5075756;28;20060;-81
2023/01/29 06:23:06;;;;;;;23.23;18.43;;;;;;;4.31;69.64;99895.06;5075679;28;20386;-80
2023/01/29 06:25:31;;;;;;;20.77;16.63;;;;;;;4.30;69.74;99886.41;5075543;28;20025;-80
2023/01/29 06:27:57;;;;;;;21.37;17.07;;;;;;;4.50;69.64;99913.50;5075645;28;20021;-80
2023/01/29 06:30:22;;;;;;;23.43;19.40;;;;;;;4.81;69.77;99971.06;5075604;28;20500;-80
2023/01/29 06:32:48;;;;;;;21.10;17.43;;;;;;;4.54;69.54;99916.69;5077167;28;20020;-80
2023/01/29 06:35:14;;;;;;;21.80;17.60;;;;;;;4.34;69.58;99913.94;5079117;28;20057;-79
2023/01/29 06:37:40;;;;;;;23.33;19.30;;;;;;;4.79;69.77;99973.78;5077846;28;20025;-80
2023/01/29 06:40:06;;;;;;;24.63;18.10;;;;;;;4.78;69.46;99975.59;5079061;28;20098;-80
2023/01/29 06:42:34;;;;;;;22.73;17.70;;;;;;;4.80;69.65;99975.44;5079147;28;20027;-80
2023/01/29 06:44:59;;;;;;;24.10;18.83;;;;;;;4.18;69.15;99870.94;5079050;28;20020;-80
2023/01/29 06:47:26;;;;;;;23.27;18.17;;;;;;;4.38;69.39;99925.78;5079528;28;20549;-80
2023/01/29 06:49:51;;;;;;;23.03;17.03;;;;;;;4.03;69.30;99886.13;5078598;28;20028;-80
2023/01/29 06:52:16;;;;;;;23.03;18.00;;;;;;;4.15;69.35;99896.38;5079082;28;20024;-80
2023/01/29 06:54:42;;;;;;;19.67;16.10;;;;;;;4.25;69.30;99919.94;5079154;28;20021;-80
2023/01/29 06:57:07;;;;;;;22.03;17.07;;;;;;;4.69;69.61;99997.28;5080048;28;20017;-80
2023/01/29 06:59:33;;;;;;;23.27;18.90;;;;;;;4.16;69.28;99928.56;5081359;28;20024;-81
2023/01/29 07:01:58;;;;;;;22.60;18.10;;;;;;;4.12;69.30;99908.88;5081129;28;20501;-80
2023/01/29 07:04:24;;;;;;;18.97;16.33;;;;;;;4.03;69.59;99917.47;5074188;28;20039;-80
2023/01/29 07:06:49;;;;;;;21.70;17.77;;;;;;;4.65;69.44;99990.66;5074272;28;20043;-80
2023/01/29 07:09:14;;;;;;;21.63;18.20;;;;;;;4.13;69.36;99908.72;5074813;28;20023;-80
2023/01/29 07:11:40;;;;;;;23.10;18.33;;;;;;;3.47;69.54;99795.81;5073402;28;20025;-80
2023/01/29 07:14:06;;;;;;;22.53;18.33;;;;;;;4.59;69.73;100001.63;5075020;28;20024;-80
2023/01/29 07:16:32;;;;;;;22.47;18.03;;;;;;;4.79;69.44;100011.25;5077195;28;20013;-80
2023/01/29 07:18:57;;;;;;;24.67;19.00;;;;;;;4.08;69.43;99902.22;5078151;28;20084;-80
2023/01/29 07:21:23;;;;;;;25.50;20.13;;;;;;;4.39;69.47;99966.66;5079409;28;20044;-80
2023/01/29 07:23:48;;;;;;;24.70;19.70;;;;;;;4.10;69.36;99897.72;5079790;28;20044;-80
2023/01/29 07:26:14;;;;;;;22.80;18.73;;;;;;;4.77;69.42;100012.34;5080965;28;20454;-80
2023/01/29 07:28:40;;;;;;;28.17;22.17;;;;;;;4.34;69.60;99953.16;5080926;28;20031;-80
2023/01/29 07:31:05;;;;;;;21.77;19.07;;;;;;;4.33;69.37;99943.66;5074626;28;20414;-80
2023/01/29 07:33:32;;;;;;;23.93;18.57;;;;;;;4.76;69.26;100015.91;5074602;28;20099;-81
2023/01/29 07:35:57;;;;;;;24.40;20.00;;;;;;;4.08;69.41;99897.00;5074286;28;20028;-80
2023/01/29 07:38:22;;;;;;;23.60;18.80;;;;;;;3.89;69.61;99855.91;5074784;28;20036;-80
2023/01/29 07:40:49;;;;;;;26.27;20.73;;;;;;;4.45;69.44;99960.94;5073130;28;20025;-81
2023/01/29 07:43:15;;;;;;;26.90;22.23;;;;;;;4.33;69.18;99938.44;5073467;28;20559;-81
2023/01/29 07:45:41;;;;;;;24.57;20.77;;;;;;;4.84;69.37;100020.50;5073383;28;20024;-81
2023/01/29 07:48:09;;;;;;;23.93;19.30;;;;;;;4.16;69.31;99910.25;5074795;28;20021;-81
2023/01/29 07:50:35;;;;;;;23.43;19.77;;;;;;;4.40;69.24;99946.59;5077542;28;20024;-80
2023/01/29 07:53:01;;;;;;;25.10;20.80;;;;;;;4.88;69.58;100024.50;5076945;28;20039;-81
2023/01/29 07:55:26;;;;;;;24.73;20.47;;;;;;;4.46;69.57;99965.22;5075535;28;20043;-80
2023/01/29 07:57:55;;;;;;;24.60;20.30;;;;;;;4.91;69.44;100022.47;5076731;28;20020;-80
2023/01/29 08:00:21;;;;;;;23.33;19.03;;;;;;;4.65;69.26;99989.81;5077109;28;20020;-80
2023/01/29 08:02:46;;;;;;;23.00;19.27;;;;;;;4.89;69.37;100032.22;5077003;28;20519;-80
2023/01/29 08:05:12;;;;;;;23.20;19.23;;;;;;;4.77;69.08;100018.41;5076567;28;20103;-80
2023/01/29 08:07:37;;;;;;;23.60;20.33;;;;;;;4.51;69.13;99987.53;5076766;28;20090;-80
2023/01/29 08:10:03;;;;;;;24.53;19.80;;;;;;;4.43;69.46;99977.69;5076474;28;20021;-80
2023/01/29 08:12:28;;;;;;;27.57;21.60;;;;;;;4.56;69.64;99993.22;5076311;28;20455;-80
2023/01/29 08:14:54;;;;;;;23.13;19.10;;;;;;;4.21;69.78;99955.13;5075058;28;20055;-80
2023/01/29 08:17:19;;;;;;;22.17;18.10;;;;;;;4.34;69.49;99958.38;5075985;28;20020;-80
2023/01/29 08:19:45;;;;;;;20.20;16.67;;;;;;;4.80;69.77;100033.00;5075706;28;20059;-80
2023/01/29 08:22:10;;;;;;;19.33;15.50;;;;;;;4.07;69.42;99924.91;5075447;28;20119;-80
2023/01/29 08:24:35;;;;;;;21.57;17.20;;;;;;;4.41;69.54;99992.69;5075574;28;20077;-80
2023/01/29 08:27:01;;;;;;;19.27;16.00;;;;;;;4.50;69.71;100004.19;5074716;28;20016;-80
2023/01/29 08:29:26;;;;;;;20.97;16.93;;;;;;;4.19;69.83;99948.38;5075325;28;20020;-80
2023/01/29 08:31:51;;;;;;;22.10;17.07;;;;;;;4.17;69.56;99958.13;5075440;28;20083;-80
2023/01/29 08:34:17;;;;;;;18.83;14.27;;;;;;;3.11;69.55;99777.97;5076085;28;20035;-80
2023/01/29 08:36:42;;;;;;;17.87;13.87;;;;;;;4.62;69.77;100009.22;5076458;28;20028;-80
2023/01/29 08:39:08;;;;;;;17.53;14.07;;;;;;;4.29;69.53;99967.56;5075256;28;20024;-80
2023/01/29 08:41:33;;;;;;;17.67;14.63;;;;;;;4.45;69.83;99999.31;5076461;28;20413;-80
2023/01/29 08:44:00;;;;;;;15.63;13.30;;;;;;;4.76;69.53;100050.75;5076558;28;20081;-80
2023/01/29 08:46:26;;;;;;;19.63;16.13;;;;;;;3.78;69.47;99895.16;5076382;28;20580;-80
2023/01/29 08:48:51;;;;;;;28.07;22.63;;;;;;;3.90;69.55;99914.22;5075569;28;20033;-80
2023/01/29 08:51:17;;;;;;;21.57;17.17;;;;;;;4.35;69.80;99982.75;5075268;28;20084;-80
2023/01/29 08:53:42;;;;;;;17.70;14.17;;;;;;;3.15;69.64;99818.50;5075709;28;20020;-80
2023/01/29 08:56:08;;;;;;;17.67;14.10;;;;;;;3.78;69.99;99887.31;5075656;28;20040;-80
2023/01/29 08:58:33;;;;;;;18.73;15.23;;;;;;;4.46;69.49;99991.38;5075798;28;20025;-80
2023/01/29 09:01:07;;;;;;;18.87;14.97;;;;;;;4.88;69.58;100061.13;5075120;28;20075;-80
2023/01/29 09:03:32;;;;;;;20.27;16.13;;;;;;;4.92;69.63;100070.38;5074732;28;20475;-80
2023/01/29 09:05:57;;;;;;;21.93;17.20;;;;;;;4.16;69.75;99936.41;5075025;28;20016;-80
2023/01/29 09:08:23;;;;;;;20.03;16.67;;;;;;;4.56;69.54;100003.69;5075705;28;20103;-80
2023/01/29 09:10:48;;;;;;;18.43;15.57;;;;;;;4.55;69.87;100023.78;5074984;28;20025;-80
2023/01/29 09:13:13;;;;;;;22.03;18.37;;;;;;;4.25;69.62;99964.38;5075188;28;20104;-80
2023/01/29 09:15:39;;;;;;;21.83;17.93;;;;;;;3.85;69.64;99887.63;5076084;28;20024;-80
2023/01/29 09:18:04;;;;;;;20.60;16.90;;;;;;;4.66;69.99;100020.25;5075425;28;20020;-80
2023/01/29 09:20:30;;;;;;;20.77;16.23;;;;;;;4.60;69.94;100000.69;5075124;28;20068;-80
2023/01/29 09:22:57;;;;;;;17.13;14.63;;;;;;;4.93;69.98;100054.56;5074626;28;20031;-80
2023/01/29 09:25:23;;;;;;;20.93;15.97;;;;;;;4.44;69.93;99988.03;5074187;28;20050;-80
2023/01/29 09:27:49;;;;;;;19.57;16.40;;;;;;;3.96;69.61;99896.25;5074378;28;20051;-80
2023/01/29 09:30:14;;;;;;;16.67;14.60;;;;;;;4.63;69.91;100016.09;5074300;28;20029;-80
2023/01/29 09:32:40;;;;;;;17.93;15.40;;;;;;;4.52;70.19;99997.03;5074371;28;20020;-80
2023/01/29 09:35:05;;;;;;;16.50;14.80;;;;;;;4.73;69.80;100016.16;5074127;28;20032;-80
2023/01/29 09:37:31;;;;;;;20.43;16.60;;;;;;;4.05;69.90;99889.44;5075608;28;20051;-80
2023/01/29 09:39:56;;;;;;;18.43;16.10;;;;;;;4.46;69.74;99951.31;5074859;28;20547;-80
2023/01/29 09:42:34;;;;;;;18.93;15.03;;;;;;;4.84;69.89;100007.41;5074681;28;20120;-80
2023/01/29 09:45:00;;;;;;;22.30;18.23;;;;;;;5.07;69.96;100040.31;5076661;28;20017;-80
2023/01/29 09:47:26;;;;;;;21.70;17.33;;;;;;;4.96;69.74;100038.59;5073357;28;20566;-80
2023/01/29 09:50:07;;;;;;;17.83;15.50;;;;;;;4.01;70.08;99943.72;5070352;28;20107;-80
2023/01/29 09:52:41;;;;;;;17.40;14.67;;;;;;;4.87;69.95;100028.91;5071366;28;20507;-80
2023/01/29 09:55:15;;;;;;;21.87;17.40;;;;;;;4.81;69.99;100026.81;5070325;28;20535;-80
2023/01/29 09:57:50;;;;;;;24.80;19.93;;;;;;;4.97;69.95;100023.72;5071337;28;20516;-80
2023/01/29 10:00:23;;;;;;;20.43;17.03;;;;;;;4.60;69.94;99982.38;5071795;28;20124;-80
2023/01/29 10:03:20;;;;;;;23.10;15.90;;;;;;;4.57;70.22;99958.25;5073113;28;20398;-80
2023/01/29 10:05:45;;;;;;;18.17;14.37;;;;;;;5.10;70.31;100034.81;5076043;28;20017;-80
2023/01/29 10:08:23;;;;;;;18.10;15.60;;;;;;;5.13;70.33;100021.47;5075744;28;20025;-79
2023/01/29 10:10:54;;;;;;;17.70;14.77;;;;;;;4.99;69.59;99999.09;5075747;28;20567;-80
2023/01/29 10:13:31;;;;;;;15.38;12.75;;;;;;;5.19;69.89;100023.53;5076521;28;20055;-80
2023/01/29 10:16:17;;;;;;;17.43;14.53;;;;;;;5.17;69.78;100016.78;5078002;28;20048;-80
2023/01/29 10:18:54;;;;;;;19.13;15.63;;;;;;;5.22;69.78;100017.25;5077876;28;20030;-79
2023/01/29 10:21:45;;;;;;;18.50;16.03;;;;;;;4.46;70.02;99883.34;5070887;28;20052;-79
2023/01/29 10:24:16;;;;;;;18.13;15.10;;;;;;;5.17;69.35;99999.28;5073053;28;20024;-79
2023/01/29 10:26:41;;;;;;;15.27;12.97;;;;;;;5.10;69.29;99985.91;5073565;28;20013;-79
2023/01/29 10:29:13;;;;;;;19.73;15.80;;;;;;;5.34;69.77;100009.16;5073436;28;20031;-79
2023/01/29 10:31:39;;;;;;;21.75;17.63;;;;;;;5.31;69.76;100012.03;5073038;28;20460;-79
2023/01/29 10:34:22;;;;;;;21.63;18.33;;;;;;;5.31;69.62;100008.59;5070995;28;20088;-79
2023/01/29 10:36:48;;;;;;;17.00;14.60;;;;;;;5.19;69.49;99988.69;5069420;28;20024;-79
2023/01/29 10:39:19;;;;;;;17.70;15.17;;;;;;;5.02;69.76;99964.81;5073643;28;20096;-79
2023/01/29 10:41:44;;;;;;;19.30;16.97;;;;;;;5.33;69.95;100002.28;5074269;28;20025;-79
2023/01/29 10:44:26;;;;;;;21.00;17.20;;;;;;;4.91;69.90;99932.66;5074170;28;20016;-79
2023/01/29 10:47:06;;;;;;;20.92;18.65;;;;;;;5.33;69.92;99997.03;5072740;28;20466;-80
2023/01/29 10:50:00;;;;;;;23.97;19.07;;;;;;;5.26;70.07;99987.22;5074169;28;20028;-79
2023/01/29 10:52:53;;;;;;;23.57;18.93;;;;;;;5.33;69.89;99998.81;5074280;28;20583;-79
2023/01/29 10:55:48;;;;;;;21.80;17.37;;;;;;;4.92;69.62;99924.69;5074055;28;20115;-79
2023/01/29 10:58:29;;;;;;;24.77;19.43;;;;;;;5.30;69.59;99986.00;5072749;28;20040;-79
2023/01/29 11:00:55;;;;;;;26.92;20.80;;;;;;;4.88;69.59;99918.06;5074103;28;20023;-79
2023/01/29 11:03:26;;;;;;;23.07;18.93;;;;;;;5.17;69.87;99965.25;5074106;28;20024;-79
2023/01/29 11:06:01;;;;;;;24.38;19.95;;;;;;;5.14;69.50;99949.00;5073929;28;20036;-79
2023/01/29 11:08:33;;;;;;;25.50;21.43;;;;;;;5.38;69.71;99973.91;5074010;28;20083;-79
2023/01/29 11:11:14;;;;;;;20.67;16.87;;;;;;;5.42;69.75;99969.22;5073899;28;20386;-79
2023/01/29 11:13:59;;;;;;;22.87;18.80;;;;;;;5.49;69.49;99974.75;5073765;28;20020;-79
2023/01/29 11:16:28;;;;;;;24.17;19.40;;;;;;;5.02;69.23;99886.28;5073474;28;20027;-79
2023/01/29 11:18:59;;;;;;;23.57;19.27;;;;;;;5.50;69.08;99958.06;5073685;28;20039;-79
2023/01/29 11:21:26;;;;;;;25.57;20.07;;;;;;;5.27;69.29;99915.59;5073408;28;20528;-79
2023/01/29 11:24:14;;;;;;;23.87;19.47;;;;;;;5.57;69.16;99952.16;5073650;28;20429;-79
2023/01/29 11:26:41;;;;;;;22.90;19.40;;;;;;;5.63;68.73;99958.63;5073566;28;20012;-79
2023/01/29 11:29:28;;;;;;;23.47;19.07;;;;;;;5.63;68.88;99948.97;5073849;28;20095;-79
2023/01/29 11:31:54;;;;;;;24.47;19.37;;;;;;;5.17;68.59;99860.56;5072813;28;20052;-80
2023/01/29 11:34:26;;;;;;;26.73;20.67;;;;;;;5.80;68.30;99946.66;5074230;28;20070;-79
2023/01/29 11:37:01;;;;;;;23.50;19.37;;;;;;;5.87;68.32;99937.28;5073728;28;20027;-79
2023/01/29 11:39:29;;;;;;;22.88;18.48;;;;;;;5.70;68.05;99918.66;5073389;28;20091;-79
2023/01/29 11:42:03;;;;;;;21.80;18.13;;;;;;;5.80;68.49;99936.16;5073208;28;20099;-79
2023/01/29 11:44:41;;;;;;;22.27;18.27;;;;;;;5.27;67.86;99850.97;5073384;28;20405;-79
2023/01/29 11:47:14;;;;;;;21.13;17.70;;;;;;;5.77;67.95;99946.94;5073209;28;20043;-79
2023/01/29 11:49:49;;;;;;;18.80;14.20;;;;;;;5.11;67.96;99841.00;5071679;28;20027;-79
2023/01/29 11:52:18;;;;;;;19.00;15.60;;;;;;;5.55;68.02;99908.72;5072802;28;20524;-79
2023/01/29 11:54:52;;;;;;;19.73;17.07;;;;;;;5.77;68.22;99933.81;5072926;28;20420;-79
2023/01/29 11:57:26;;;;;;;20.98;15.73;;;;;;;5.30;67.97;99852.47;5072813;28;20020;-80
2023/01/29 11:59:53;;;;;;;20.27;16.67;;;;;;;5.21;67.72;99829.75;5071395;28;20020;-80
2023/01/29 12:02:31;;;;;;;22.50;18.43;;;;;;;5.40;67.46;99853.31;5072799;28;20020;-80
2023/01/29 12:05:02;;;;;;;24.03;18.00;;;;;;;5.75;67.79;99911.22;5072977;28;20051;-79
2023/01/29 12:07:28;;;;;;;25.80;19.37;;;;;;;5.56;67.86;99878.94;5071420;28;20020;-79
2023/01/29 12:09:56;;;;;;;22.63;17.77;;;;;;;5.73;67.22;99888.72;5072833;28;20093;-79
2023/01/29 12:12:31;;;;;;;23.83;18.63;;;;;;;5.93;67.71;99919.22;5071246;28;20031;-79
2023/01/29 12:15:16;;;;;;;22.35;18.77;;;;;;;5.84;67.55;99903.47;5072512;28;20025;-80